KRKP/RKP METAR and TAF weather

Enter ICAO airport designator
Station Type Date Time Source
KRKP METAR 2021/03/01 03:53 UTC NOAA

KRKP 010353Z AUTO 14010KT 3SM BR BKN002 OVC018 20/20 A2986 RMK AO2 SLP111 T02000200


Station Type Date Time Source
KRKP Decoded METAR 2021/03/01 03:53 UTC NOAA

ROCKPORT ARANSAS COUNTY AIRPORT , TX, United States (KRKP) 28-05N 97-03W 6M
Feb 28, 2021 - 10:53 PM EST / 2021.03.01 0353 UTC
Wind: from the SE (140 degrees) at 12 MPH (10 KT):0
Visibility: 3 mile(s):0
Sky conditions: overcast
Weather: mist
Temperature: 68.0 F (20.0 C)
Dew Point: 68.0 F (20.0 C)
Relative Humidity: 100%
Pressure (altimeter): 29.86 in. Hg (1011 hPa)
ob: KRKP 010353Z AUTO 14010KT 3SM BR BKN002 OVC018 20/20 A2986 RMK AO2 SLP111 T02000200
cycle: 4

Station Type Date Time Source
KRKP TAF UTC NOAA

Error!

Example: see airport list